createdAt,value
2022-08-26T00:00:20.164Z,99554.44
2022-08-26T00:02:49.854Z,99552.25
2022-08-26T00:05:17.267Z,99551.75
2022-08-26T00:07:45.461Z,99550.03
2022-08-26T00:10:13.308Z,99552.56
2022-08-26T00:12:42.329Z,99554.59
2022-08-26T00:15:14.262Z,99552.06
2022-08-26T00:17:42.571Z,99549.19
2022-08-26T00:20:10.886Z,99553.25
2022-08-26T00:22:40.485Z,99546.13
2022-08-26T00:25:08.844Z,99542.06
2022-08-26T00:27:37.334Z,99552.47
2022-08-26T00:30:08.579Z,99553.47
2022-08-26T00:32:36.235Z,99551.13
2022-08-26T00:35:05.151Z,99541.69
2022-08-26T00:37:33.530Z,99546.06
2022-08-26T00:40:01.813Z,99552.47
2022-08-26T00:42:32.886Z,99544.00
2022-08-26T00:45:01.839Z,99544.84
2022-08-26T00:47:52.330Z,99537.25
2022-08-26T00:50:24.140Z,99535.66
2022-08-26T00:52:53.163Z,99538.00
2022-08-26T00:55:27.509Z,99528.72
2022-08-26T00:58:05.849Z,99541.81
2022-08-26T01:00:34.929Z,99533.03
2022-08-26T01:03:03.572Z,99526.53
2022-08-26T01:05:33.433Z,99524.38
2022-08-26T01:08:03.615Z,99525.34
2022-08-26T01:10:31.356Z,99526.56
2022-08-26T01:13:00.192Z,99527.69
2022-08-26T01:15:35.739Z,99527.38
2022-08-26T01:18:05.885Z,99529.37
2022-08-26T01:20:36.930Z,99526.56
2022-08-26T01:23:08.484Z,99530.03
2022-08-26T01:25:39.145Z,99530.03
2022-08-26T01:28:09.092Z,99525.34
2022-08-26T01:30:37.890Z,99529.03
2022-08-26T01:33:06.040Z,99527.66
2022-08-26T01:35:34.089Z,99519.34
2022-08-26T01:38:02.409Z,99519.47
2022-08-26T01:40:48.931Z,99520.81
2022-08-26T01:43:20.571Z,99520.81
2022-08-26T01:45:49.629Z,99520.72
2022-08-26T01:48:18.817Z,99519.78
2022-08-26T01:50:46.884Z,99513.97
2022-08-26T01:53:15.587Z,99514.66
2022-08-26T01:55:44.423Z,99522.06
2022-08-26T01:58:17.874Z,99519.34
2022-08-26T02:00:46.826Z,99524.34
2022-08-26T02:03:18.347Z,99524.22
2022-08-26T02:05:48.745Z,99527.63
2022-08-26T02:08:24.641Z,99516.59
2022-08-26T02:10:54.884Z,99522.59
2022-08-26T02:13:24.642Z,99519.94
2022-08-26T02:15:54.017Z,99518.75
2022-08-26T02:18:22.906Z,99521.81
2022-08-26T02:20:51.808Z,99517.06
2022-08-26T02:23:20.068Z,99516.22
2022-08-26T02:26:06.151Z,99517.19
2022-08-26T02:29:05.071Z,99518.16
2022-08-26T02:31:36.100Z,99519.69
2022-08-26T02:34:13.945Z,99516.62
2022-08-26T02:36:42.874Z,99520.87
2022-08-26T02:39:11.813Z,99524.53
2022-08-26T02:41:44.875Z,99527.03
2022-08-26T02:44:13.397Z,99525.56
2022-08-26T02:46:41.876Z,99518.84
2022-08-26T02:49:15.588Z,99509.91
2022-08-26T02:51:44.615Z,99516.72
2022-08-26T02:54:12.903Z,99517.94
2022-08-26T02:56:41.790Z,99520.19
2022-08-26T02:59:09.506Z,99516.72
2022-08-26T03:01:37.332Z,99516.13
2022-08-26T03:04:07.590Z,99516.19
2022-08-26T03:06:35.515Z,99508.44
2022-08-26T03:09:04.729Z,99512.87
2022-08-26T03:11:33.276Z,99510.31
2022-08-26T03:14:01.732Z,99512.63
2022-08-26T03:16:34.559Z,99517.19
2022-08-26T03:19:05.490Z,99498.78
2022-08-26T03:21:33.589Z,99503.97
2022-08-26T03:24:01.680Z,99509.19
2022-08-26T03:26:29.590Z,99507.41
2022-08-26T03:29:16.656Z,99499.59
2022-08-26T03:31:47.117Z,99504.06
2022-08-26T03:34:15.746Z,99508.97
2022-08-26T03:36:44.424Z,99509.59
2022-08-26T03:39:13.149Z,99502.88
2022-08-26T03:41:41.047Z,99511.44
2022-08-26T03:44:11.468Z,99503.22
2022-08-26T03:46:39.589Z,99505.81
2022-08-26T03:49:07.363Z,99500.91
2022-08-26T03:51:35.152Z,99500.19
2022-08-26T03:54:08.353Z,99508.13
2022-08-26T03:56:36.864Z,99501.06
2022-08-26T03:59:05.430Z,99507.69
2022-08-26T04:01:35.508Z,99503.97
2022-08-26T04:04:06.540Z,99501.66
2022-08-26T04:06:36.916Z,99498.19
2022-08-26T04:09:08.293Z,99499.63
2022-08-26T04:11:38.290Z,99505.25
2022-08-26T04:14:14.371Z,99506.37
2022-08-26T04:16:45.525Z,99509.47
2022-08-26T04:19:14.783Z,99503.91
2022-08-26T04:21:42.512Z,99504.63
2022-08-26T04:24:13.277Z,99498.91
2022-08-26T04:26:42.813Z,99504.41
2022-08-26T04:29:13.101Z,99511.31
2022-08-26T04:31:41.501Z,99509.72
2022-08-26T04:34:14.132Z,99507.88
2022-08-26T04:36:43.937Z,99514.16
2022-08-26T04:39:12.658Z,99514.97
2022-08-26T04:41:40.391Z,99505.69
2022-08-26T04:44:08.516Z,99511.03
2022-08-26T04:46:39.798Z,99513.19
2022-08-26T04:49:11.784Z,99509.53
2022-08-26T04:51:39.801Z,99509.81
2022-08-26T04:54:07.395Z,99501.41
2022-08-26T04:56:39.320Z,99509.81
2022-08-26T04:59:16.756Z,99504.50
2022-08-26T05:01:46.758Z,99506.28
2022-08-26T05:04:23.446Z,99510.22
2022-08-26T05:06:54.051Z,99507.53
2022-08-26T05:09:26.371Z,99512.06
2022-08-26T05:11:55.317Z,99506.59
2022-08-26T05:14:23.813Z,99506.41
2022-08-26T05:16:51.681Z,99510.00
2022-08-26T05:19:19.773Z,99507.84
2022-08-26T05:21:49.592Z,99506.16
2022-08-26T05:24:19.362Z,99510.31
2022-08-26T05:26:48.117Z,99510.06
2022-08-26T05:29:16.921Z,99516.59
2022-08-26T05:31:50.379Z,99506.13
2022-08-26T05:36:54.416Z,99512.25
2022-08-26T05:39:24.732Z,99507.66
2022-08-26T05:41:53.504Z,99506.53
2022-08-26T05:44:22.494Z,99511.00
2022-08-26T05:46:52.024Z,99513.22
2022-08-26T05:49:22.537Z,99511.69
2022-08-26T05:52:03.780Z,99512.53
2022-08-26T05:54:34.253Z,99509.16
2022-08-26T05:57:08.820Z,99514.34
2022-08-26T05:59:46.814Z,99507.47
2022-08-26T06:02:19.801Z,99509.31
2022-08-26T06:04:48.187Z,99507.75
2022-08-26T06:07:16.997Z,99505.72
2022-08-26T06:09:46.426Z,99510.03
2022-08-26T06:12:18.550Z,99512.41
2022-08-26T06:14:48.976Z,99514.63
2022-08-26T06:17:17.320Z,99521.31
2022-08-26T06:19:52.381Z,99520.56
2022-08-26T06:22:40.381Z,99513.75
2022-08-26T06:25:29.046Z,99522.59
2022-08-26T06:27:57.747Z,99515.59
2022-08-26T06:30:26.399Z,99520.34
2022-08-26T06:32:59.484Z,99523.88
2022-08-26T06:35:28.533Z,99523.72
2022-08-26T06:38:05.084Z,99519.31
2022-08-26T06:40:47.709Z,99515.47
2022-08-26T06:43:21.376Z,99514.63
2022-08-26T06:45:49.614Z,99518.38
2022-08-26T06:48:25.665Z,99518.63
2022-08-26T06:51:03.942Z,99518.88
2022-08-26T06:53:31.898Z,99515.31
2022-08-26T06:56:03.324Z,99514.63
2022-08-26T06:58:39.838Z,99513.78
2022-08-26T07:01:18.745Z,99507.94
2022-08-26T07:03:54.265Z,99521.00
2022-08-26T07:06:26.318Z,99517.16
2022-08-26T07:09:01.849Z,99519.34
2022-08-26T07:11:33.078Z,99510.78
2022-08-26T07:14:01.973Z,99517.06
2022-08-26T07:16:40.623Z,99508.84
2022-08-26T07:19:13.688Z,99512.13
2022-08-26T07:21:42.416Z,99519.00
2022-08-26T07:24:17.229Z,99514.03
2022-08-26T07:26:59.390Z,99508.19
2022-08-26T07:29:34.604Z,99509.34
2022-08-26T07:32:04.633Z,99517.44
2022-08-26T07:34:33.325Z,99506.66
2022-08-26T07:37:01.511Z,99501.78
2022-08-26T07:39:34.680Z,99505.47
2022-08-26T07:42:07.892Z,99502.50
2022-08-26T07:50:00.481Z,99509.00
2022-08-26T07:52:31.957Z,99506.19
2022-08-26T07:55:02.637Z,99503.22
2022-08-26T07:57:30.865Z,99499.19
2022-08-26T08:00:01.704Z,99502.25
2022-08-26T08:02:40.837Z,99499.91
2022-08-26T08:05:09.793Z,99497.53
2022-08-26T08:10:30.488Z,99499.72
2022-08-26T08:13:02.164Z,99500.25
2022-08-26T08:15:33.334Z,99499.34
2022-08-26T08:18:03.431Z,99497.03
2022-08-26T08:20:34.246Z,99500.16
2022-08-26T08:23:04.402Z,99484.47
2022-08-26T08:25:33.281Z,99488.94
2022-08-26T08:28:02.670Z,99487.78
2022-08-26T08:30:37.759Z,99483.97
2022-08-26T08:33:07.011Z,99479.25
2022-08-26T08:35:35.667Z,99480.94
2022-08-26T08:38:04.154Z,99482.41
2022-08-26T08:40:32.393Z,99479.88
2022-08-26T08:43:04.241Z,99471.88
2022-08-26T08:45:37.829Z,99479.47
2022-08-26T08:48:12.403Z,99479.00
2022-08-26T08:50:47.132Z,99473.59
2022-08-26T08:53:20.476Z,99479.03
2022-08-26T08:55:53.386Z,99472.84
2022-08-26T08:58:23.524Z,99473.47
2022-08-26T09:00:55.436Z,99460.31
2022-08-26T09:03:29.300Z,99464.69
2022-08-26T09:05:59.618Z,99457.63
2022-08-26T09:08:33.817Z,99462.38
2022-08-26T09:11:04.557Z,99467.03
2022-08-26T09:13:47.714Z,99456.09
2022-08-26T09:16:21.586Z,99455.38
2022-08-26T09:19:11.173Z,99456.69
2022-08-26T09:21:39.921Z,99457.56
2022-08-26T09:24:08.466Z,99453.09
2022-08-26T09:26:47.535Z,99450.81
2022-08-26T09:29:22.652Z,99446.81
2022-08-26T09:32:36.490Z,99438.91
2022-08-26T09:35:16.393Z,99439.38
2022-08-26T09:37:55.440Z,99437.53
2022-08-26T09:40:29.223Z,99435.06
2022-08-26T09:43:22.046Z,99439.63
2022-08-26T09:45:59.537Z,99428.69
2022-08-26T09:48:36.498Z,99440.84
2022-08-26T09:51:26.686Z,99437.19
2022-08-26T09:54:01.947Z,99429.84
2022-08-26T09:56:41.361Z,99426.38
2022-08-26T09:59:12.254Z,99426.25
2022-08-26T10:01:44.757Z,99430.22
2022-08-26T10:04:24.873Z,99432.97
2022-08-26T10:06:56.457Z,99424.34
2022-08-26T10:09:28.115Z,99427.88
2022-08-26T10:12:12.558Z,99429.28
2022-08-26T10:17:24.443Z,99419.25
2022-08-26T10:19:57.714Z,99414.53
2022-08-26T10:22:49.244Z,99413.06
2022-08-26T10:25:21.475Z,99416.38
2022-08-26T10:27:57.806Z,99407.13
2022-08-26T10:30:32.606Z,99400.13
2022-08-26T10:33:05.300Z,99401.13
2022-08-26T10:35:36.422Z,99397.16
2022-08-26T10:38:09.754Z,99394.91
2022-08-26T10:40:39.293Z,99394.03
2022-08-26T10:43:30.468Z,99393.22
2022-08-26T10:46:08.720Z,99393.72
2022-08-26T10:51:22.386Z,99387.12
2022-08-26T10:54:34.049Z,99387.94
2022-08-26T10:57:03.920Z,99386.88
2022-08-26T10:59:45.021Z,99385.09
2022-08-26T11:02:34.694Z,99375.03
2022-08-26T11:05:08.917Z,99381.06
2022-08-26T11:07:49.673Z,99373.25
2022-08-26T11:10:21.367Z,99375.34
2022-08-26T11:12:57.774Z,99373.38
2022-08-26T11:15:29.776Z,99369.91
2022-08-26T11:18:03.669Z,99366.91
2022-08-26T11:20:41.762Z,99372.75
2022-08-26T11:23:18.099Z,99368.59
2022-08-26T11:26:12.493Z,99356.53
2022-08-26T11:28:54.655Z,99357.75
2022-08-26T11:31:31.911Z,99359.38
2022-08-26T11:34:02.097Z,99356.41
2022-08-26T11:36:39.879Z,99355.78
2022-08-26T11:39:30.412Z,99347.66
2022-08-26T11:42:04.570Z,99348.44
2022-08-26T11:44:41.607Z,99341.72
2022-08-26T11:47:25.337Z,99339.69
2022-08-26T11:50:34.236Z,99340.03
2022-08-26T11:53:07.740Z,99339.19
2022-08-26T11:55:37.537Z,99331.69
2022-08-26T11:58:08.204Z,99329.03
2022-08-26T12:00:45.780Z,99334.34
2022-08-26T12:03:24.162Z,99331.16
2022-08-26T12:05:57.441Z,99326.38
2022-08-26T12:08:28.517Z,99325.19
2022-08-26T12:11:04.158Z,99317.16
2022-08-26T12:13:40.478Z,99313.41
2022-08-26T12:16:22.684Z,99315.75
2022-08-26T12:18:54.075Z,99317.50
2022-08-26T12:21:29.432Z,99306.59
2022-08-26T12:24:04.483Z,99301.84
2022-08-26T12:26:36.707Z,99296.28
2022-08-26T12:29:19.853Z,99302.44
2022-08-26T12:32:15.668Z,99288.97
2022-08-26T12:34:45.096Z,99290.91
2022-08-26T12:37:14.562Z,99286.84
2022-08-26T12:39:56.684Z,99283.31
2022-08-26T12:42:42.289Z,99284.19
2022-08-26T12:45:11.501Z,99290.84
2022-08-26T12:47:45.406Z,99281.88
2022-08-26T12:50:21.423Z,99274.03
2022-08-26T12:53:08.363Z,99277.34
2022-08-26T13:01:14.543Z,99271.09
2022-08-26T13:04:03.444Z,99265.50
2022-08-26T13:06:32.613Z,99266.69
2022-08-26T13:09:07.579Z,99260.06
2022-08-26T13:11:45.115Z,99257.19
2022-08-26T13:14:18.394Z,99255.69
2022-08-26T13:16:55.893Z,99246.84
2022-08-26T13:19:29.922Z,99249.13
2022-08-26T13:24:44.753Z,99245.09
2022-08-26T13:27:15.453Z,99236.72
2022-08-26T13:29:51.652Z,99232.84
2022-08-26T13:32:31.483Z,99237.16
2022-08-26T13:35:00.925Z,99238.66
2022-08-26T13:37:43.647Z,99238.00
2022-08-26T13:42:53.607Z,99225.84
2022-08-26T13:45:21.693Z,99232.19
2022-08-26T13:47:52.001Z,99234.56
2022-08-26T13:52:58.601Z,99223.69
2022-08-26T13:55:34.407Z,99216.41
2022-08-26T13:58:06.302Z,99218.38
2022-08-26T14:00:33.978Z,99211.38
2022-08-26T14:03:04.595Z,99207.75
2022-08-26T14:05:38.605Z,99209.91
2022-08-26T14:08:06.794Z,99203.91
2022-08-26T14:10:37.152Z,99204.88
2022-08-26T14:13:13.667Z,99198.91
2022-08-26T14:15:47.570Z,99204.16
2022-08-26T14:18:17.094Z,99196.81
2022-08-26T14:20:55.162Z,99212.69
2022-08-26T14:23:23.889Z,99205.97
2022-08-26T14:28:29.566Z,99217.59
2022-08-26T14:31:02.048Z,99215.81
2022-08-26T14:33:38.664Z,99221.97
2022-08-26T14:36:32.847Z,99221.22
2022-08-26T14:39:12.643Z,99222.03
2022-08-26T14:41:54.692Z,99215.31
2022-08-26T14:44:37.465Z,99221.44
2022-08-26T14:47:08.815Z,99211.47
2022-08-26T14:49:37.047Z,99217.34
2022-08-26T14:54:55.407Z,99213.84
2022-08-26T14:57:26.823Z,99213.31
2022-08-26T14:59:57.678Z,99211.31
2022-08-26T15:02:34.013Z,99206.03
2022-08-26T15:05:07.977Z,99203.91
2022-08-26T15:07:38.539Z,99201.09
2022-08-26T15:10:14.626Z,99205.72
2022-08-26T15:12:45.269Z,99203.06
2022-08-26T15:15:15.635Z,99194.16
2022-08-26T15:17:49.724Z,99203.06
2022-08-26T15:20:34.563Z,99201.88
2022-08-26T15:23:06.030Z,99203.09
2022-08-26T15:25:40.041Z,99199.53
2022-08-26T15:28:12.798Z,99202.81
2022-08-26T15:30:48.948Z,99196.72
2022-08-26T15:33:26.574Z,99191.22
2022-08-26T15:35:55.930Z,99190.69
2022-08-26T15:38:23.903Z,99191.50
2022-08-26T15:40:51.331Z,99191.47
2022-08-26T15:43:28.638Z,99189.97
2022-08-26T15:45:59.884Z,99192.41
2022-08-26T15:48:33.580Z,99186.13
2022-08-26T15:51:02.225Z,99182.78
2022-08-26T15:53:33.189Z,99186.72
2022-08-26T15:56:10.637Z,99179.34
2022-08-26T15:58:39.769Z,99176.34
2022-08-26T16:01:11.597Z,99173.19
2022-08-26T16:03:41.891Z,99174.50
2022-08-26T16:06:09.628Z,99165.72
2022-08-26T16:08:40.627Z,99174.50
2022-08-26T16:13:52.631Z,99175.25
2022-08-26T16:16:21.659Z,99168.44
2022-08-26T16:18:49.877Z,99158.44
2022-08-26T16:21:18.315Z,99155.41
2022-08-26T16:23:47.595Z,99159.00
2022-08-26T16:26:24.512Z,99163.78
2022-08-26T16:28:54.828Z,99161.56
2022-08-26T16:31:31.198Z,99168.72
2022-08-26T16:34:07.737Z,99173.50
2022-08-26T16:36:39.320Z,99169.91
2022-08-26T16:39:07.629Z,99169.56
2022-08-26T16:41:42.900Z,99171.78
2022-08-26T16:44:23.803Z,99174.50
2022-08-26T16:46:58.736Z,99174.38
2022-08-26T16:49:29.806Z,99183.44
2022-08-26T16:52:03.880Z,99178.16
2022-08-26T16:54:32.040Z,99190.16
2022-08-26T16:57:00.276Z,99181.59
2022-08-26T16:59:38.646Z,99185.75
2022-08-26T17:02:09.640Z,99189.53
2022-08-26T17:04:39.596Z,99186.47
2022-08-26T17:07:09.840Z,99193.63
2022-08-26T17:09:41.453Z,99185.97
2022-08-26T17:12:11.744Z,99192.84
2022-08-26T17:14:46.973Z,99191.78
2022-08-26T17:17:19.014Z,99184.22
2022-08-26T17:19:47.603Z,99193.47
2022-08-26T17:22:19.866Z,99190.84
2022-08-26T17:24:48.076Z,99189.81
2022-08-26T17:27:16.433Z,99192.00
2022-08-26T17:29:49.637Z,99189.25
2022-08-26T17:32:22.622Z,99185.34
2022-08-26T17:34:51.880Z,99192.69
2022-08-26T17:37:26.050Z,99190.38
2022-08-26T17:39:53.832Z,99200.06
2022-08-26T17:42:31.078Z,99207.41
2022-08-26T17:45:00.033Z,99201.31
2022-08-26T17:47:30.619Z,99196.34
2022-08-26T17:50:05.614Z,99196.28
2022-08-26T17:52:35.640Z,99200.09
2022-08-26T17:55:11.040Z,99199.69
2022-08-26T17:57:53.445Z,99208.69
2022-08-26T18:03:04.643Z,99204.06
2022-08-26T18:05:32.090Z,99208.47
2022-08-26T18:08:06.628Z,99212.41
2022-08-26T18:10:38.648Z,99202.97
2022-08-26T18:13:06.866Z,99218.88
2022-08-26T18:15:48.728Z,99209.66
2022-08-26T18:18:19.698Z,99215.47
2022-08-26T18:20:52.611Z,99216.66
2022-08-26T18:23:31.836Z,99215.72
2022-08-26T18:26:06.698Z,99211.94
2022-08-26T18:28:47.638Z,99213.78
2022-08-26T18:31:15.840Z,99208.53
2022-08-26T18:33:51.572Z,99207.53
2022-08-26T18:36:23.877Z,99209.31
2022-08-26T18:38:59.850Z,99204.09
2022-08-26T18:44:20.290Z,99209.50
2022-08-26T18:46:48.453Z,99212.78
2022-08-26T18:49:23.746Z,99214.75
2022-08-26T18:52:01.812Z,99217.63
2022-08-26T18:54:43.822Z,99220.19
2022-08-26T18:57:30.523Z,99218.00
2022-08-26T19:00:05.911Z,99218.63
2022-08-26T19:02:51.678Z,99227.56
2022-08-26T19:05:28.656Z,99230.28
2022-08-26T19:08:01.638Z,99233.31
2022-08-26T19:10:30.682Z,99228.84
2022-08-26T19:13:00.798Z,99243.06
2022-08-26T19:15:32.038Z,99245.75
2022-08-26T19:18:09.150Z,99243.31
2022-08-26T19:20:49.638Z,99250.25
2022-08-26T19:23:31.371Z,99247.66
2022-08-26T19:26:11.873Z,99256.53
2022-08-26T19:28:52.587Z,99250.91
2022-08-26T19:31:23.973Z,99247.50
2022-08-26T19:33:58.193Z,99254.37
2022-08-26T19:36:29.349Z,99253.37
2022-08-26T19:38:57.649Z,99253.56
2022-08-26T19:41:37.444Z,99254.78
2022-08-26T19:44:38.623Z,99261.66
2022-08-26T19:47:11.744Z,99260.94
2022-08-26T19:49:46.775Z,99263.56
2022-08-26T19:52:20.776Z,99262.25
2022-08-26T19:54:51.675Z,99262.66
2022-08-26T19:57:43.886Z,99257.84
2022-08-26T20:00:23.808Z,99254.59
2022-08-26T20:02:56.878Z,99267.16
2022-08-26T20:05:24.952Z,99264.09
2022-08-26T20:07:54.643Z,99265.12
2022-08-26T20:10:26.643Z,99264.00
2022-08-26T20:13:00.637Z,99268.19
2022-08-26T20:15:38.645Z,99275.84
2022-08-26T20:18:44.860Z,99266.84
2022-08-26T20:21:26.716Z,99274.59
2022-08-26T20:24:05.510Z,99269.63
2022-08-26T20:26:39.684Z,99276.78
2022-08-26T20:29:08.784Z,99279.75
2022-08-26T20:31:48.478Z,99282.22
2022-08-26T20:34:22.792Z,99290.09
2022-08-26T20:36:58.773Z,99278.81
2022-08-26T20:39:29.818Z,99290.03
2022-08-26T20:41:58.712Z,99291.78
2022-08-26T20:44:36.273Z,99298.72
2022-08-26T20:47:19.461Z,99294.50
2022-08-26T20:49:48.847Z,99303.22
2022-08-26T20:52:20.940Z,99302.16
2022-08-26T20:54:49.205Z,99299.91
2022-08-26T20:57:18.735Z,99302.56
2022-08-26T20:59:48.076Z,99309.13
2022-08-26T21:02:18.506Z,99311.84
2022-08-26T21:04:49.679Z,99314.09
2022-08-26T21:07:17.898Z,99315.09
2022-08-26T21:09:47.075Z,99313.88
2022-08-26T21:12:14.963Z,99315.84
2022-08-26T21:14:49.552Z,99318.62
2022-08-26T21:17:19.531Z,99312.72
2022-08-26T21:19:48.620Z,99312.50
2022-08-26T21:22:19.731Z,99319.47
2022-08-26T21:24:49.650Z,99327.41
2022-08-26T21:27:26.530Z,99320.53
2022-08-26T21:29:57.213Z,99322.00
2022-08-26T21:32:31.319Z,99317.00
2022-08-26T21:34:59.772Z,99324.19
2022-08-26T21:37:31.165Z,99318.47
2022-08-26T21:40:02.168Z,99326.19
2022-08-26T21:42:33.176Z,99320.28
2022-08-26T21:45:01.638Z,99319.62
2022-08-26T21:47:34.736Z,99320.63
2022-08-26T21:50:03.946Z,99315.84
2022-08-26T21:52:33.114Z,99315.16
2022-08-26T21:55:09.102Z,99316.50
2022-08-26T21:57:39.374Z,99312.16
2022-08-26T22:00:09.373Z,99319.53
2022-08-26T22:02:37.460Z,99312.38
2022-08-26T22:05:06.890Z,99311.72
2022-08-26T22:07:34.736Z,99313.84
2022-08-26T22:10:03.177Z,99318.59
2022-08-26T22:12:30.537Z,99313.91
2022-08-26T22:15:02.620Z,99317.94
2022-08-26T22:17:30.870Z,99309.47
2022-08-26T22:20:02.160Z,99310.28
2022-08-26T22:22:33.626Z,99314.81
2022-08-26T22:25:02.822Z,99315.13
2022-08-26T22:27:30.543Z,99317.25
2022-08-26T22:29:59.726Z,99313.09
2022-08-26T22:32:27.104Z,99311.44
2022-08-26T22:34:54.620Z,99308.37
2022-08-26T22:37:24.744Z,99303.59
2022-08-26T22:39:52.520Z,99300.09
2022-08-26T22:42:20.006Z,99300.03
2022-08-26T22:44:48.237Z,99302.59
2022-08-26T22:47:15.714Z,99299.06
2022-08-26T22:49:43.398Z,99299.56
2022-08-26T22:52:11.292Z,99306.00
2022-08-26T22:54:38.932Z,99292.78
2022-08-26T22:57:07.914Z,99291.91
2022-08-26T22:59:36.480Z,99287.72
2022-08-26T23:02:05.090Z,99293.16
2022-08-26T23:04:39.763Z,99286.09
2022-08-26T23:07:08.024Z,99283.06
2022-08-26T23:09:38.532Z,99283.38
2022-08-26T23:12:06.550Z,99288.47
2022-08-26T23:14:36.625Z,99293.84
2022-08-26T23:17:09.097Z,99286.28
2022-08-26T23:19:36.485Z,99296.28
2022-08-26T23:22:04.183Z,99286.09
2022-08-26T23:24:32.309Z,99296.09
2022-08-26T23:27:00.673Z,99291.50
2022-08-26T23:29:29.644Z,99286.66
2022-08-26T23:31:57.660Z,99281.22
2022-08-26T23:34:44.990Z,99279.22
2022-08-26T23:37:14.237Z,99269.56
2022-08-26T23:39:42.806Z,99276.69
2022-08-26T23:42:10.940Z,99271.28
2022-08-26T23:44:39.131Z,99271.28
2022-08-26T23:47:08.320Z,99272.97
2022-08-26T23:49:40.175Z,99269.59
2022-08-26T23:52:26.570Z,99262.88
2022-08-26T23:54:58.595Z,99269.59
2022-08-26T23:57:27.399Z,99272.81
2022-08-26T23:59:54.847Z,99276.87
